Time;durP1;ratioP1;P1;durP2;ratioP2;P2;SDS_P1;SDS_P2;PMS_P1;PMS_P2;Temp;Humidity;BMP_temperature;BMP_pressure;BME280_temperature;BME280_humidity;BME280_pressure;Samples;Min_cycle;Max_cycle;Signal;HPM_P1;HPM_P2
2021/01/24 00:01:45;;;;;;;40.05;20.10;;;2.20;99.90;;;;;;4960132;28;20130;-86
2021/01/24 00:04:11;;;;;;;45.88;22.30;;;2.20;99.90;;;;;;4954951;28;20027;-86
2021/01/24 00:06:37;;;;;;;45.97;20.42;;;2.20;99.90;;;;;;4954979;28;20043;-87
2021/01/24 00:09:03;;;;;;;38.67;20.45;;;2.20;99.90;;;;;;4954820;28;20157;-87
2021/01/24 00:11:28;;;;;;;48.10;22.98;;;2.30;99.90;;;;;;4979370;28;20027;-86
2021/01/24 00:13:54;;;;;;;46.00;22.77;;;2.20;99.90;;;;;;4974129;28;20034;-86
2021/01/24 00:16:20;;;;;;;39.28;20.77;;;2.20;99.90;;;;;;4988763;28;20136;-84
2021/01/24 00:18:45;;;;;;;44.10;20.92;;;2.20;99.90;;;;;;4969523;28;20031;-87
2021/01/24 00:21:11;;;;;;;44.50;21.02;;;2.20;99.90;;;;;;4969570;28;20473;-85
2021/01/24 00:23:37;;;;;;;42.45;21.27;;;2.20;99.90;;;;;;4955663;28;20122;-86
2021/01/24 00:26:02;;;;;;;45.30;24.85;;;2.20;99.90;;;;;;4953424;28;20078;-84
2021/01/24 00:28:28;;;;;;;48.42;22.10;;;2.10;99.90;;;;;;4953328;28;20023;-85
2021/01/24 00:30:54;;;;;;;40.35;21.73;;;2.10;99.90;;;;;;4954929;28;20026;-84
2021/01/24 00:33:19;;;;;;;38.40;22.17;;;2.20;99.90;;;;;;4954709;28;20425;-86
2021/01/24 00:35:46;;;;;;;43.40;21.63;;;2.20;99.90;;;;;;4969407;28;20031;-85
2021/01/24 00:38:11;;;;;;;43.95;21.50;;;2.20;99.90;;;;;;4954402;28;20034;-85
2021/01/24 00:40:37;;;;;;;50.28;22.23;;;2.20;99.90;;;;;;4956479;28;20038;-86
2021/01/24 00:43:03;;;;;;;43.83;22.05;;;2.20;99.90;;;;;;4972617;28;20101;-87
2021/01/24 00:45:29;;;;;;;46.40;23.23;;;2.20;99.90;;;;;;4988847;28;20018;-87
2021/01/24 00:47:55;;;;;;;45.13;23.73;;;2.20;99.90;;;;;;4972535;28;20034;-88
2021/01/24 00:50:20;;;;;;;65.93;27.58;;;2.20;99.90;;;;;;4972226;28;20428;-84
2021/01/24 00:52:46;;;;;;;69.15;31.60;;;2.20;99.90;;;;;;4973748;28;20031;-85
2021/01/24 00:55:12;;;;;;;69.97;33.03;;;2.10;99.90;;;;;;4973848;28;20469;-84
2021/01/24 00:57:37;;;;;;;105.95;43.28;;;2.10;99.90;;;;;;4972397;28;20035;-86
2021/01/24 01:00:05;;;;;;;117.43;50.13;;;2.00;99.90;;;;;;4973607;28;20027;-87
2021/01/24 01:02:31;;;;;;;296.38;124.47;;;2.00;99.90;;;;;;4988712;28;20038;-86
2021/01/24 01:04:56;;;;;;;145.82;61.45;;;2.00;99.90;;;;;;4973645;28;20022;-87
2021/01/24 01:07:22;;;;;;;112.93;52.20;;;2.00;99.90;;;;;;4972233;28;20134;-85
2021/01/24 01:09:48;;;;;;;91.75;41.47;;;2.00;99.90;;;;;;4972001;28;20477;-86
2021/01/24 01:12:14;;;;;;;72.30;32.08;;;2.00;99.90;;;;;;4969936;28;20061;-86
2021/01/24 01:14:40;;;;;;;65.68;29.92;;;2.00;99.90;;;;;;4973657;28;20434;-86
2021/01/24 01:17:05;;;;;;;58.28;28.02;;;2.00;99.90;;;;;;4973491;28;20030;-86
2021/01/24 01:19:32;;;;;;;62.55;29.17;;;2.00;99.90;;;;;;4988696;28;20547;-86
2021/01/24 01:21:57;;;;;;;53.50;25.42;;;2.00;99.90;;;;;;4973188;28;20484;-85
2021/01/24 01:24:23;;;;;;;50.10;23.02;;;2.00;99.90;;;;;;4973372;28;20027;-86
2021/01/24 01:26:49;;;;;;;54.13;25.70;;;1.90;99.90;;;;;;4988510;28;20066;-86
2021/01/24 01:29:15;;;;;;;53.13;22.30;;;1.90;99.90;;;;;;4976902;28;20031;-86
2021/01/24 01:31:40;;;;;;;48.35;21.70;;;1.80;99.90;;;;;;4976979;28;20524;-86
2021/01/24 01:34:06;;;;;;;41.63;21.75;;;1.80;99.90;;;;;;4975713;28;20549;-88
2021/01/24 01:36:33;;;;;;;44.17;20.75;;;1.80;99.90;;;;;;4977040;28;20030;-85
2021/01/24 01:39:00;;;;;;;42.97;21.40;;;1.80;99.90;;;;;;4976043;28;20384;-85
2021/01/24 01:41:30;;;;;;;48.90;21.08;;;1.70;99.90;;;;;;4965009;28;20028;-84
2021/01/24 01:43:56;;;;;;;44.47;19.92;;;1.80;99.90;;;;;;4957616;28;20041;-85
2021/01/24 01:46:24;;;;;;;39.28;19.10;;;1.70;99.90;;;;;;4957340;28;20067;-84
2021/01/24 01:48:51;;;;;;;46.13;21.52;;;1.70;99.90;;;;;;4957522;28;20355;-85
2021/01/24 01:51:16;;;;;;;38.83;18.92;;;1.70;99.90;;;;;;4957386;28;20031;-84
2021/01/24 01:53:44;;;;;;;37.55;18.27;;;1.70;99.90;;;;;;4957217;28;20035;-85
2021/01/24 01:56:10;;;;;;;40.85;18.23;;;1.70;99.90;;;;;;4973266;28;20034;-85
2021/01/24 01:58:36;;;;;;;46.00;18.58;;;1.70;99.90;;;;;;4991547;28;20385;-85
2021/01/24 02:01:06;;;;;;;43.60;18.92;;;1.70;99.90;;;;;;4975679;28;20034;-85
2021/01/24 02:03:44;;;;;;;38.75;19.33;;;1.70;99.90;;;;;;4974993;28;20420;-86
2021/01/24 02:06:38;;;;;;;36.20;18.80;;;1.70;99.90;;;;;;4975287;28;20019;-85
2021/01/24 02:09:20;;;;;;;;;;;1.70;99.90;;;;;;4977211;28;20038;-87
2021/01/24 02:12:00;;;;;;;;;;;1.70;99.90;;;;;;4976892;28;19906;-87
2021/01/24 02:14:29;;;;;;;;;;;1.70;99.90;;;;;;4976634;28;19910;-87
2021/01/24 02:16:55;;;;;;;;;;;1.70;99.90;;;;;;4975446;28;20348;-87
2021/01/24 02:19:26;;;;;;;;;;;1.70;99.90;;;;;;4976507;28;19953;-87
2021/01/24 02:21:54;;;;;;;;;;;1.70;99.90;;;;;;4976929;28;20419;-86
2021/01/24 02:24:21;;;;;;;;;;;1.60;99.90;;;;;;4989441;28;19906;-86
2021/01/24 02:26:56;;;;;;;;;;;1.60;99.90;;;;;;4962732;28;19961;-85
2021/01/24 02:29:31;;;;;;;;;;;1.60;99.90;;;;;;4976436;28;20383;-86
2021/01/24 02:31:59;;;;;;;;;;;1.60;99.90;;;;;;4975559;28;19910;-86
2021/01/24 02:34:28;;;;;;;;;;;1.50;99.90;;;;;;4991444;28;20280;-85
2021/01/24 02:36:53;;;;;;;;;;;1.40;99.90;;;;;;4975347;28;19910;-86
2021/01/24 02:39:19;;;;;;;;;;;1.40;99.90;;;;;;4975152;28;19906;-86
2021/01/24 02:41:45;;;;;;;;;;;1.40;99.90;;;;;;4976260;28;20371;-85
2021/01/24 02:44:11;;;;;;;;;;;1.30;99.90;;;;;;4991131;28;20328;-86
2021/01/24 02:46:37;;;;;;;;;;;1.20;99.90;;;;;;4974833;28;19917;-85
2021/01/24 02:49:03;;;;;;;;;;;1.20;99.90;;;;;;4976149;28;19910;-85
2021/01/24 02:51:29;;;;;;;;;;;1.20;99.90;;;;;;4975454;28;19906;-83
2021/01/24 02:53:55;;;;;;;;;;;1.20;99.90;;;;;;4975136;28;19913;-85
2021/01/24 02:56:22;;;;;;;;;;;1.30;99.90;;;;;;4956999;28;19910;-84
2021/01/24 02:58:52;;;;;;;;;;;1.30;99.90;;;;;;4957056;28;19914;-86
2021/01/24 03:01:17;;;;;;;;;;;1.30;99.90;;;;;;4956751;29;20038;-86
2021/01/24 03:03:43;;;;;;;;;;;1.30;99.90;;;;;;4956515;29;20018;-86
2021/01/24 03:06:10;;;;;;;;;;;1.30;99.90;;;;;;4956547;29;19913;-85
2021/01/24 03:08:36;;;;;;;;;;;1.30;99.90;;;;;;4956183;28;19910;-85
2021/01/24 03:11:03;;;;;;;;;;;1.20;99.90;;;;;;4956462;28;19906;-84
2021/01/24 03:13:48;;;;;;;;;;;1.20;99.90;;;;;;4955163;29;19913;-86
2021/01/24 03:16:15;;;;;;;;;;;1.20;99.90;;;;;;4959123;28;20261;-86
2021/01/24 03:18:43;;;;;;;;;;;1.10;99.90;;;;;;4974290;28;19946;-86
2021/01/24 03:21:09;;;;;;;;;;;1.10;99.90;;;;;;4975567;28;19907;-85
2021/01/24 03:23:36;;;;;;;;;;;1.10;99.90;;;;;;4974183;28;19917;-85
2021/01/24 03:26:02;;;;;;;;;;;1.10;99.90;;;;;;4972402;28;19910;-85
2021/01/24 03:28:28;;;;;;;;;;;1.10;99.90;;;;;;4975461;28;19906;-84
2021/01/24 03:30:54;;;;;;;;;;;1.00;99.90;;;;;;4975651;28;20291;-84
2021/01/24 03:33:19;;;;;;;;;;;1.00;99.90;;;;;;4975384;28;19906;-85
2021/01/24 03:35:45;;;;;;;;;;;1.10;99.90;;;;;;4974071;28;19906;-85
2021/01/24 03:38:11;;;;;;;;;;;1.00;99.90;;;;;;4975369;28;19925;-85
2021/01/24 03:40:36;;;;;;;;;;;1.10;99.90;;;;;;4975491;28;19917;-86
2021/01/24 03:43:02;;;;;;;;;;;1.10;99.90;;;;;;4972522;28;19920;-87
2021/01/24 03:45:27;;;;;;;;;;;1.10;99.90;;;;;;4970064;28;19918;-86
2021/01/24 03:47:53;;;;;;;;;;;1.10;99.90;;;;;;4972737;28;20000;-85
2021/01/24 03:50:19;;;;;;;;;;;1.10;99.90;;;;;;4970698;28;19918;-83
2021/01/24 03:52:45;;;;;;;;;;;1.00;99.90;;;;;;4972482;28;19996;-86
2021/01/24 03:55:10;;;;;;;;;;;1.10;99.90;;;;;;4974605;28;19906;-86
2021/01/24 03:57:36;;;;;;;;;;;1.10;99.90;;;;;;4972145;28;20056;-86
2021/01/24 04:00:03;;;;;;;;;;;1.10;99.90;;;;;;4974222;28;20291;-86
2021/01/24 04:02:29;;;;;;;;;;;1.10;99.90;;;;;;4972729;28;20287;-85
2021/01/24 04:04:55;;;;;;;;;;;1.10;99.90;;;;;;4973528;28;19970;-84
2021/01/24 04:07:20;;;;;;;;;;;1.10;99.90;;;;;;4972896;28;20327;-88
2021/01/24 04:09:46;;;;;;;;;;;1.10;99.90;;;;;;4971409;28;19989;-87
2021/01/24 04:12:12;;;;;;;;;;;1.10;99.90;;;;;;4972686;28;19913;-88
2021/01/24 04:14:38;;;;;;;;;;;1.00;99.90;;;;;;4971246;28;19913;-87
2021/01/24 04:17:03;;;;;;;;;;;1.10;99.90;;;;;;4953212;28;19917;-86
2021/01/24 04:19:29;;;;;;;;;;;1.00;99.90;;;;;;4952066;29;19913;-86
2021/01/24 04:21:55;;;;;;;;;;;1.00;99.90;;;;;;4954634;28;19918;-86
2021/01/24 04:24:20;;;;;;;;;;;1.00;99.90;;;;;;4953765;29;20113;-86
2021/01/24 04:26:46;;;;;;;;;;;0.90;99.90;;;;;;4954412;29;20426;-85
2021/01/24 04:29:11;;;;;;;;;;;0.90;99.90;;;;;;4957550;28;19918;-86
2021/01/24 04:31:37;;;;;;;;;;;0.90;99.90;;;;;;4974566;28;19921;-86
2021/01/24 04:34:03;;;;;;;;;;;0.90;99.90;;;;;;4974679;28;19913;-85
2021/01/24 04:36:28;;;;;;;;;;;1.00;99.90;;;;;;4974540;28;19906;-85
2021/01/24 04:38:54;;;;;;;;;;;1.00;99.90;;;;;;4974374;28;19906;-85
2021/01/24 04:41:20;;;;;;;;;;;1.00;99.90;;;;;;4973452;28;20363;-83
2021/01/24 04:43:46;;;;;;;;;;;1.00;99.90;;;;;;4974277;28;20384;-87
2021/01/24 04:46:11;;;;;;;;;;;1.00;99.90;;;;;;4976659;28;20012;-84
2021/01/24 04:48:37;;;;;;;;;;;0.90;99.90;;;;;;4992259;28;20300;-86
2021/01/24 04:51:03;;;;;;;;;;;0.90;99.90;;;;;;4993818;28;19906;-85
2021/01/24 04:53:29;;;;;;;;;;;0.90;99.90;;;;;;4992225;28;19906;-85
2021/01/24 04:55:55;;;;;;;;;;;0.90;99.90;;;;;;4992683;28;19905;-85
2021/01/24 04:58:21;;;;;;;;;;;0.90;99.90;;;;;;4992393;28;20394;-87
2021/01/24 05:00:47;;;;;;;;;;;1.00;99.90;;;;;;4993850;28;20430;-86
2021/01/24 05:03:14;;;;;;;;;;;1.00;99.90;;;;;;4993897;28;20261;-85
2021/01/24 05:05:39;;;;;;;;;;;0.90;99.90;;;;;;4997497;28;19910;-86
2021/01/24 05:08:06;;;;;;;;;;;0.90;99.90;;;;;;4992150;28;19957;-86
2021/01/24 05:10:32;;;;;;;;;;;0.90;99.90;;;;;;4978080;28;19913;-85
2021/01/24 05:12:58;;;;;;;;;;;0.90;99.90;;;;;;4976631;28;19996;-86
2021/01/24 05:15:24;;;;;;;;;;;1.00;99.90;;;;;;4969927;28;20355;-86
2021/01/24 05:17:57;;;;;;;;;;;1.00;99.90;;;;;;4958529;28;19975;-87
2021/01/24 05:20:23;;;;;;;;;;;1.00;99.90;;;;;;4955416;29;20291;-87
2021/01/24 05:22:49;;;;;;;;;;;1.10;99.90;;;;;;4956617;28;19925;-86
2021/01/24 05:25:19;;;;;;;;;;;1.10;99.90;;;;;;4956633;29;19906;-87
2021/01/24 05:27:44;;;;;;;;;;;1.20;99.90;;;;;;4955128;28;19906;-87
2021/01/24 05:30:11;;;;;;;;;;;1.10;99.90;;;;;;4956182;28;19953;-87
2021/01/24 05:32:40;;;;;;;;;;;1.10;99.90;;;;;;4955123;29;19917;-86
2021/01/24 05:35:10;;;;;;;;;;;1.10;99.90;;;;;;4957058;29;20272;-87
2021/01/24 05:37:37;;;;;;;;;;;1.00;99.90;;;;;;4991367;28;19909;-89
2021/01/24 05:40:05;;;;;;;;;;;1.10;99.90;;;;;;5009074;28;19905;-88
2021/01/24 05:42:33;;;;;;;;;;;1.00;99.90;;;;;;4956921;28;19981;-88
2021/01/24 05:44:58;;;;;;;;;;;1.00;99.90;;;;;;4956954;29;19907;-88
2021/01/24 05:47:24;;;;;;;;;;;1.00;99.90;;;;;;4956757;29;19913;-87
2021/01/24 05:49:50;;;;;;;;;;;1.00;99.90;;;;;;4957937;28;20004;-86
2021/01/24 05:52:19;;;;;;;;;;;1.00;99.90;;;;;;4957944;29;19908;-86
2021/01/24 05:54:45;;;;;;;;;;;0.90;99.90;;;;;;4957714;29;19907;-87
2021/01/24 05:57:11;;;;;;;;;;;0.90;99.90;;;;;;4956189;29;19914;-86
2021/01/24 05:59:50;;;;;;;;;;;0.90;99.90;;;;;;4956662;29;19917;-86
2021/01/24 06:02:17;;;;;;;;;;;0.80;99.90;;;;;;4957584;28;20324;-85
2021/01/24 06:04:43;;;;;;;;;;;0.90;99.90;;;;;;4957483;29;19942;-85
2021/01/24 06:07:09;;;;;;;;;;;0.80;99.90;;;;;;4957559;29;20394;-85
2021/01/24 06:09:35;;;;;;;;;;;0.80;99.90;;;;;;4957352;29;19907;-85
2021/01/24 06:12:01;;;;;;;;;;;0.90;99.90;;;;;;4957588;28;19981;-87
2021/01/24 06:14:27;;;;;;;;;;;0.90;99.90;;;;;;4956255;28;20379;-88
2021/01/24 06:16:53;;;;;;;;;;;0.90;99.90;;;;;;4956236;28;19906;-88
2021/01/24 06:19:20;;;;;;;;;;;1.00;99.90;;;;;;4956302;29;19907;-87
2021/01/24 06:21:47;;;;;;;;;;;1.00;99.90;;;;;;4972199;28;20328;-86
2021/01/24 06:24:19;;;;;;;;;;;1.10;99.90;;;;;;4956230;29;19906;-86
2021/01/24 06:26:46;;;;;;;;;;;1.10;99.90;;;;;;4956329;28;19913;-87
2021/01/24 06:29:12;;;;;;;;;;;1.10;99.90;;;;;;4955850;29;19914;-84
2021/01/24 06:31:45;;;;;;;;;;;1.00;99.90;;;;;;4955838;29;19914;-86
2021/01/24 06:34:11;;;;;;;;;;;1.00;99.90;;;;;;4956524;28;19914;-87
2021/01/24 06:36:55;;;;;;;;;;;0.90;99.90;;;;;;4973075;28;19913;-86
2021/01/24 06:39:27;;;;;;;;;;;0.90;99.90;;;;;;4976444;28;19910;-87
2021/01/24 06:41:52;;;;;;;;;;;0.90;99.90;;;;;;4975032;28;19910;-88
2021/01/24 06:44:47;;;;;;;;;;;0.90;99.90;;;;;;4975304;28;20379;-88
2021/01/24 06:47:32;;;;;;;;;;;0.90;99.90;;;;;;4966430;28;19913;-90
2021/01/24 06:49:58;;;;;;;;;;;0.90;99.90;;;;;;4974815;28;19913;-89
2021/01/24 06:52:28;;;;;;;;;;;1.00;99.90;;;;;;4976158;28;19907;-89
2021/01/24 06:54:54;;;;;;;;;;;1.00;99.90;;;;;;4973877;28;19923;-86
2021/01/24 06:57:29;;;;;;;;;;;1.00;99.90;;;;;;4976026;28;19921;-87
2021/01/24 07:00:13;;;;;;;;;;;1.00;99.90;;;;;;4975916;28;20319;-86
2021/01/24 07:02:39;;;;;;;;;;;1.00;99.90;;;;;;4975783;28;19964;-87
2021/01/24 07:05:08;;;;;;;;;;;1.00;99.90;;;;;;4974890;28;19910;-86
2021/01/24 07:07:35;;;;;;;;;;;1.00;99.90;;;;;;4990987;28;19906;-87
2021/01/24 07:10:01;;;;;;;;;;;1.00;99.90;;;;;;4976849;28;19917;-88
2021/01/24 07:12:36;;;;;;;;;;;1.00;99.90;;;;;;4989067;28;19910;-91
2021/01/24 07:15:22;;;;;;;;;;;1.00;99.90;;;;;;4973298;28;20359;-90
2021/01/24 07:17:55;;;;;;;;;;;0.90;99.90;;;;;;4975202;28;19906;-86
2021/01/24 07:20:21;;;;;;;;;;;0.90;99.90;;;;;;4974217;28;19961;-86
2021/01/24 07:22:47;;;;;;;;;;;0.80;99.90;;;;;;4975332;28;20062;-84
2021/01/24 07:25:13;;;;;;;;;;;0.80;99.90;;;;;;4969989;28;19911;-87
2021/01/24 07:27:39;;;;;;;;;;;0.80;99.90;;;;;;4954604;29;19913;-86
2021/01/24 07:30:05;;;;;;;;;;;0.90;99.90;;;;;;4971183;28;20284;-88
2021/01/24 07:32:31;;;;;;;;;;;0.80;99.90;;;;;;4954691;29;20001;-86
2021/01/24 07:34:57;;;;;;;;;;;0.80;99.90;;;;;;4961744;28;20380;-88
2021/01/24 07:37:23;;;;;;;;;;;0.90;99.90;;;;;;4979912;28;19906;-85
2021/01/24 07:39:50;;;;;;;;;;;0.90;99.90;;;;;;4992368;28;20389;-90
2021/01/24 07:42:16;;;;;;;;;;;0.90;99.90;;;;;;4974480;28;19913;-89
2021/01/24 07:44:43;;;;;;;;;;;0.90;99.90;;;;;;4988339;28;19910;-90
2021/01/24 07:47:09;;;;;;;;;;;0.80;99.90;;;;;;4973023;28;20461;-89
2021/01/24 07:49:35;;;;;;;;;;;0.80;99.90;;;;;;4971967;28;19936;-90
2021/01/24 07:52:01;;;;;;;;;;;0.90;99.90;;;;;;4974550;28;20339;-89
2021/01/24 07:54:27;;;;;;;;;;;0.90;99.90;;;;;;4972209;28;20004;-89
2021/01/24 07:56:53;;;;;;;;;;;0.90;99.90;;;;;;4971332;28;20357;-88
2021/01/24 07:59:19;;;;;;;;;;;0.80;99.90;;;;;;4971180;28;19913;-89
2021/01/24 08:01:45;;;;;;;;;;;0.80;99.90;;;;;;4972745;28;20009;-88
2021/01/24 08:04:11;;;;;;;;;;;0.80;99.90;;;;;;4987914;28;19997;-89
2021/01/24 08:06:37;;;;;;;;;;;0.80;99.90;;;;;;4972833;28;19946;-85
2021/01/24 08:09:03;;;;;;;;;;;0.80;99.90;;;;;;4972178;28;19961;-90
2021/01/24 08:11:29;;;;;;;;;;;0.80;99.90;;;;;;4971269;28;19916;-87
2021/01/24 08:13:55;;;;;;;;;;;0.90;99.90;;;;;;4971441;28;19910;-88
2021/01/24 08:16:24;;;;;;;;;;;0.90;99.90;;;;;;4973213;28;19910;-88
2021/01/24 08:18:51;;;;;;;;;;;1.00;99.90;;;;;;4969155;28;19961;-88
2021/01/24 08:21:17;;;;;;;;;;;1.10;99.90;;;;;;4971244;28;20160;-88
2021/01/24 08:23:44;;;;;;;;;;;1.10;99.90;;;;;;4976504;28;20339;-88
2021/01/24 08:26:10;;;;;;;;;;;1.10;99.90;;;;;;4970384;28;19914;-88
2021/01/24 08:28:36;;;;;;;;;;;1.10;99.90;;;;;;4971649;28;19960;-88
2021/01/24 08:31:02;;;;;;;;;;;1.10;99.90;;;;;;4971595;28;19910;-89
2021/01/24 08:33:28;;;;;;;;;;;1.10;99.90;;;;;;4975025;28;20406;-87
2021/01/24 08:35:54;;;;;;;;;;;1.20;99.90;;;;;;4981020;28;19949;-88
2021/01/24 08:38:20;;;;;;;;;;;1.20;99.90;;;;;;4972373;28;20411;-89
2021/01/24 08:40:47;;;;;;;;;;;1.20;99.90;;;;;;4969502;28;19952;-86
2021/01/24 08:43:15;;;;;;;;;;;1.30;99.90;;;;;;4969200;28;19922;-91
2021/01/24 08:45:41;;;;;;;;;;;1.30;99.90;;;;;;4970769;28;20368;-87
2021/01/24 08:48:07;;;;;;;;;;;1.40;99.90;;;;;;4971059;28;19910;-88
2021/01/24 08:50:37;;;;;;;;;;;1.40;99.90;;;;;;4968755;28;19926;-87
2021/01/24 08:53:04;;;;;;;;;;;1.40;99.90;;;;;;4968349;28;19910;-88
2021/01/24 08:55:30;;;;;;;;;;;1.50;99.90;;;;;;4966546;28;20338;-87
2021/01/24 08:57:56;;;;;;;;;;;1.50;99.90;;;;;;4965917;28;19918;-88
2021/01/24 09:00:22;;;;;;;;;;;1.40;99.90;;;;;;4968983;28;19912;-85
2021/01/24 09:02:48;;;;;;;;;;;1.40;99.90;;;;;;4970086;28;19957;-88
2021/01/24 09:05:15;;;;;;;;;;;1.40;99.90;;;;;;4970270;28;19953;-87
2021/01/24 09:07:42;;;;;;;;;;;1.40;99.90;;;;;;4967198;28;19914;-88
2021/01/24 09:10:18;;;;;;;;;;;1.40;99.90;;;;;;4968911;28;20367;-88
2021/01/24 09:12:44;;;;;;;;;;;1.30;99.90;;;;;;4972408;28;19957;-87
2021/01/24 09:15:10;;;;;;;;;;;1.40;99.90;;;;;;4972045;28;19913;-88
2021/01/24 09:17:36;;;;;;;;;;;1.30;99.90;;;;;;4971789;28;19906;-86
2021/01/24 09:20:02;;;;;;;;;;;1.40;99.90;;;;;;4973609;28;19910;-88
2021/01/24 09:22:27;;;;;;;;;;;1.30;99.90;;;;;;4969978;28;19918;-84
2021/01/24 09:24:53;;;;;;;;;;;1.40;99.90;;;;;;4973524;28;19972;-87
2021/01/24 09:27:19;;;;;;;;;;;1.40;99.90;;;;;;4972972;28;20012;-87
2021/01/24 09:29:46;;;;;;;;;;;1.40;99.90;;;;;;4973677;28;19913;-88
2021/01/24 09:32:11;;;;;;;;;;;1.50;99.90;;;;;;4973586;28;19988;-87
2021/01/24 09:34:37;;;;;;;;;;;1.40;99.90;;;;;;4959808;28;20009;-87
2021/01/24 09:37:03;;;;;;;;;;;1.40;99.90;;;;;;4971626;28;19997;-88
2021/01/24 09:39:29;;;;;;;;;;;1.30;99.90;;;;;;4970533;28;20405;-89
2021/01/24 09:41:55;;;;;;;;;;;1.40;99.90;;;;;;4969954;28;19910;-84
2021/01/24 09:44:21;;;;;;;;;;;1.40;99.90;;;;;;4971114;28;20372;-84
2021/01/24 09:46:46;;;;;;;;;;;1.40;99.90;;;;;;4972911;28;19906;-85
2021/01/24 09:49:12;;;;;;;;;;;1.40;99.90;;;;;;4991998;28;19910;-86
2021/01/24 09:51:38;;;;;;;;;;;1.40;99.90;;;;;;4994244;28;19921;-87
2021/01/24 09:54:03;;;;;;;;;;;1.40;99.90;;;;;;4995760;28;19906;-87
2021/01/24 09:56:29;;;;;;;;;;;1.40;99.90;;;;;;4988660;28;19928;-87
2021/01/24 09:58:56;;;;;;;;;;;1.40;99.90;;;;;;4975596;28;20350;-87
2021/01/24 10:01:21;;;;;;;;;;;1.40;99.90;;;;;;4975949;28;20359;-86
2021/01/24 10:03:47;;;;;;;;;;;1.40;99.90;;;;;;4976928;28;19918;-87
2021/01/24 10:06:16;;;;;;;;;;;1.30;99.90;;;;;;4992157;28;19906;-86
2021/01/24 10:08:42;;;;;;;;;;;1.30;99.90;;;;;;4974026;28;19920;-87
2021/01/24 10:11:08;;;;;;;;;;;1.20;99.90;;;;;;4964950;28;19909;-88
2021/01/24 10:13:33;;;;;;;;;;;1.10;99.90;;;;;;4975718;28;19905;-85
2021/01/24 10:15:59;;;;;;;;;;;1.00;99.90;;;;;;4976324;28;19906;-87
2021/01/24 10:18:25;;;;;;;;;;;1.10;99.90;;;;;;4975223;28;19917;-86
2021/01/24 10:20:51;;;;;;;;;;;1.00;99.90;;;;;;4960404;28;19910;-88
2021/01/24 10:23:20;;;;;;;;;;;1.00;99.90;;;;;;4956251;28;19921;-88
2021/01/24 10:25:46;;;;;;;;;;;1.00;99.90;;;;;;4956162;29;19906;-88
2021/01/24 10:28:11;;;;;;;;;;;1.00;99.90;;;;;;4957273;28;19910;-87
2021/01/24 10:30:37;;;;;;;;;;;1.00;99.90;;;;;;4957309;29;20348;-87
2021/01/24 10:33:02;;;;;;;;;;;1.00;99.90;;;;;;4971632;28;20448;-88
2021/01/24 10:35:28;;;;;;;;;;;1.00;99.90;;;;;;4955609;28;20303;-88
2021/01/24 10:37:54;;;;;;;;;;;1.00;99.90;;;;;;4956669;29;19906;-87
2021/01/24 10:40:19;;;;;;;;;;;1.00;99.90;;;;;;4956110;29;19945;-88
2021/01/24 10:42:45;;;;;;;;;;;1.00;99.90;;;;;;4966678;28;20390;-87
2021/01/24 10:45:11;;;;;;;;;;;1.10;99.90;;;;;;4971668;28;19910;-87
2021/01/24 10:47:37;;;;;;;;;;;1.10;99.90;;;;;;4974778;28;19957;-87
2021/01/24 10:50:04;;;;;;;;;;;1.00;99.90;;;;;;4973389;28;19937;-88
2021/01/24 10:52:29;;;;;;;;;;;1.10;99.90;;;;;;4972602;28;19972;-86
2021/01/24 10:54:55;;;;;;;;;;;1.10;99.90;;;;;;4991113;28;19993;-88
2021/01/24 10:57:21;;;;;;;;;;;1.10;99.90;;;;;;4964473;28;19914;-86
2021/01/24 10:59:46;;;;;;;;;;;1.20;99.90;;;;;;4968015;28;19910;-88
2021/01/24 11:02:12;;;;;;;;;;;1.20;99.90;;;;;;4969261;28;19918;-89
2021/01/24 11:04:37;;;;;;;;;;;1.30;99.90;;;;;;4980211;28;20013;-89
2021/01/24 11:07:06;;;;;;;;;;;1.30;99.90;;;;;;4971775;28;20315;-88
2021/01/24 11:09:32;;;;;;;;;;;1.30;99.90;;;;;;4970345;28;20672;-88
2021/01/24 11:11:59;;;;;;;;;;;1.30;99.90;;;;;;4971678;28;19961;-88
2021/01/24 11:14:25;;;;;;;;;;;1.20;99.90;;;;;;4972058;28;19922;-88
2021/01/24 11:16:50;;;;;;;;;;;1.20;99.90;;;;;;4972658;28;19915;-87
2021/01/24 11:19:16;;;;;;;;;;;1.20;99.90;;;;;;4972693;28;19929;-88
2021/01/24 11:21:41;;;;;;;;;;;1.20;99.90;;;;;;4971159;28;20223;-88
2021/01/24 11:24:07;;;;;;;;;;;1.20;99.90;;;;;;4970290;28;19933;-88
2021/01/24 11:26:33;;;;;;;;;;;1.10;99.90;;;;;;4972551;28;19932;-88
2021/01/24 11:28:58;;;;;;;;;;;1.10;99.90;;;;;;4972696;28;19909;-88
2021/01/24 11:31:24;;;;;;;;;;;1.00;99.90;;;;;;4972859;28;19909;-88
2021/01/24 11:33:49;;;;;;;;;;;1.00;99.90;;;;;;4969743;28;19916;-90
2021/01/24 11:36:16;;;;;;;;;;;1.00;99.90;;;;;;4972968;28;19918;-88
2021/01/24 11:38:42;;;;;;;;;;;1.00;99.90;;;;;;4971750;28;19910;-87
2021/01/24 11:41:07;;;;;;;;;;;0.90;99.90;;;;;;4972150;28;19925;-87
2021/01/24 11:43:33;;;;;;;;;;;0.90;99.90;;;;;;4970784;28;19914;-88
2021/01/24 11:45:59;;;;;;;;;;;0.90;99.90;;;;;;4970209;28;19914;-90
2021/01/24 11:48:25;;;;;;;;;;;0.90;99.90;;;;;;4967774;28;20009;-88
2021/01/24 11:50:50;;;;;;;;;;;0.90;99.90;;;;;;4972588;28;19965;-90
2021/01/24 11:53:20;;;;;;;;;;;0.90;99.90;;;;;;4974604;28;20284;-89
2021/01/24 11:55:45;;;;;;;;;;;0.80;99.90;;;;;;4986252;28;19914;-89
2021/01/24 11:58:11;;;;;;;;;;;0.80;99.90;;;;;;4986724;28;19918;-87
2021/01/24 12:00:37;;;;;;;;;;;0.80;99.90;;;;;;4971786;28;20303;-88
2021/01/24 12:03:03;;;;;;;;;;;0.80;99.90;;;;;;4971512;28;19926;-88
2021/01/24 12:05:29;;;;;;;;;;;0.80;99.90;;;;;;4971274;28;19914;-87
2021/01/24 12:07:55;;;;;;;;;;;0.80;99.90;;;;;;4970267;28;19906;-90
2021/01/24 12:10:20;;;;;;;;;;;0.80;99.90;;;;;;4971116;28;20950;-85
2021/01/24 12:12:46;;;;;;;;;;;0.80;99.90;;;;;;4969995;28;20366;-90
2021/01/24 12:15:11;;;;;;;;;;;0.80;99.90;;;;;;4972816;28;20178;-91
2021/01/24 12:17:37;;;;;;;;;;;0.90;99.90;;;;;;4973925;28;20402;-89
2021/01/24 12:20:03;;;;;;;;;;;0.90;99.90;;;;;;4972982;28;19949;-89
2021/01/24 12:22:29;;;;;;;;;;;0.90;99.90;;;;;;4968189;28;20268;-90
2021/01/24 12:24:54;;;;;;;;;;;0.90;99.90;;;;;;4969888;28;19953;-87
2021/01/24 12:27:23;;;;;;;;;;;0.90;99.90;;;;;;4970564;28;20363;-89
2021/01/24 12:29:48;;;;;;;;;;;0.90;99.90;;;;;;4971013;28;20388;-85
2021/01/24 12:32:14;;;;;;;;;;;0.90;99.90;;;;;;4972088;28;19906;-85
2021/01/24 12:34:39;;;;;;;;;;;0.90;99.90;;;;;;4970145;28;20379;-87
2021/01/24 12:37:05;;;;;;;;;;;0.80;99.90;;;;;;4970286;28;19941;-87
2021/01/24 12:39:31;;;;;;;;;;;0.90;99.90;;;;;;4972528;28;19906;-89
2021/01/24 12:41:56;;;;;;;;;;;0.80;99.90;;;;;;4969899;28;20218;-85
2021/01/24 12:44:22;;;;;;;;;;;0.80;99.90;;;;;;4972429;28;19910;-84
2021/01/24 12:46:48;;;;;;;;;;;0.80;99.90;;;;;;4972797;28;20355;-86
2021/01/24 12:49:14;;;;;;;;;;;0.90;99.90;;;;;;4972944;28;19909;-87
2021/01/24 12:51:39;;;;;;;;;;;0.90;99.90;;;;;;4971252;28;20651;-85
2021/01/24 12:54:05;;;;;;;;;;;1.00;99.90;;;;;;4974402;28;19910;-88
2021/01/24 12:56:31;;;;;;;;;;;1.00;99.90;;;;;;4983201;28;20370;-82
2021/01/24 12:58:57;;;;;;;;;;;1.00;99.90;;;;;;4980690;28;19921;-89
2021/01/24 13:01:22;;;;;;;;;;;1.10;99.90;;;;;;4969954;28;19917;-82
2021/01/24 13:03:48;;;;;;;;;;;1.10;99.90;;;;;;4971660;28;19930;-85
2021/01/24 13:06:14;;;;;;;;;;;1.10;99.90;;;;;;4970572;28;19910;-83
2021/01/24 13:08:39;;;;;;;;;;;1.20;99.90;;;;;;4968652;28;19929;-82
2021/01/24 13:11:05;;;;;;;;;;;1.20;99.90;;;;;;4970054;28;20406;-86
2021/01/24 13:13:31;;;;;;;;;;;1.10;99.90;;;;;;4973307;28;19960;-88
2021/01/24 13:15:57;;;;;;;;;;;1.20;99.90;;;;;;4971481;28;20018;-87
2021/01/24 13:18:23;;;;;;;;;;;1.20;99.90;;;;;;4970215;28;19906;-86
2021/01/24 13:20:49;;;;;;;;;;;1.20;99.90;;;;;;4968721;28;19910;-83
2021/01/24 13:23:14;;;;;;;;;;;1.20;99.90;;;;;;4971008;28;19925;-84
2021/01/24 13:25:40;;;;;;;;;;;1.20;99.90;;;;;;4973731;28;19914;-87
2021/01/24 13:28:06;;;;;;;;;;;1.20;99.90;;;;;;4984731;28;19910;-85
2021/01/24 13:30:32;;;;;;;;;;;1.20;99.90;;;;;;4978575;28;20113;-82
2021/01/24 13:32:59;;;;;;;;;;;1.20;99.90;;;;;;4991984;28;19946;-86
2021/01/24 13:35:25;;;;;;;;;;;1.10;99.90;;;;;;4974333;28;20279;-85
2021/01/24 13:37:50;;;;;;;;;;;1.10;99.90;;;;;;4981845;28;19916;-87
2021/01/24 13:40:17;;;;;;;;;;;1.10;99.90;;;;;;4977171;28;19906;-86
2021/01/24 13:42:43;;;;;;;;;;;1.10;99.90;;;;;;4979064;28;19941;-85
2021/01/24 13:45:09;;;;;;;;;;;1.10;99.90;;;;;;4975090;28;19914;-85
2021/01/24 13:47:35;;;;;;;;;;;1.00;99.90;;;;;;4973854;28;20005;-86
2021/01/24 13:50:00;;;;;;;;;;;1.00;99.90;;;;;;4974296;28;19933;-87
2021/01/24 13:52:26;;;;;;;;;;;1.10;99.90;;;;;;4975167;28;19906;-86
2021/01/24 13:54:52;;;;;;;;;;;1.10;99.90;;;;;;4972855;28;20195;-86
2021/01/24 13:57:18;;;;;;;;;;;1.10;99.90;;;;;;4975530;28;20013;-87
2021/01/24 13:59:43;;;;;;;;;;;1.00;99.90;;;;;;4972204;28;19910;-88
2021/01/24 14:02:09;;;;;;;;;;;1.10;99.90;;;;;;4972252;28;19914;-87
2021/01/24 14:04:34;;;;;;;;;;;1.00;99.90;;;;;;4973549;28;20425;-85
2021/01/24 14:07:00;;;;;;;;;;;1.00;99.90;;;;;;4974280;28;20245;-84
2021/01/24 14:09:26;;;;;;;;;;;1.00;99.90;;;;;;4970073;28;19910;-84